createdAt,value
2022-08-18T00:03:55.864Z,19.55
2022-08-18T00:09:02.026Z,19.52
2022-08-18T00:14:03.693Z,19.48
2022-08-18T00:19:09.260Z,19.43
2022-08-18T00:24:11.051Z,19.41
2022-08-18T00:29:12.501Z,19.50
2022-08-18T00:34:13.880Z,19.50
2022-08-18T00:39:15.290Z,19.42
2022-08-18T00:44:16.714Z,19.37
2022-08-18T00:49:18.153Z,19.35
2022-08-18T00:54:26.818Z,19.26
2022-08-18T00:59:40.265Z,19.22
2022-08-18T01:04:55.629Z,19.14
2022-08-18T01:09:58.402Z,19.14
2022-08-18T01:15:00.474Z,19.15
2022-08-18T01:20:02.268Z,19.03
2022-08-18T01:25:06.208Z,19.08
2022-08-18T01:30:14.201Z,19.01
2022-08-18T01:35:17.793Z,18.99
2022-08-18T01:41:24.294Z,18.83
2022-08-18T01:45:43.361Z,18.85
2022-08-18T01:50:44.940Z,18.84
2022-08-18T01:55:46.525Z,18.75
2022-08-18T02:00:47.988Z,18.73
2022-08-18T02:05:50.966Z,18.73
2022-08-18T02:10:52.626Z,18.61
2022-08-18T02:15:54.213Z,18.58
2022-08-18T02:20:57.776Z,18.56
2022-08-18T02:25:59.321Z,18.55
2022-08-18T02:31:11.416Z,18.50
2022-08-18T02:36:13.912Z,18.51
2022-08-18T02:41:15.488Z,18.49
2022-08-18T02:46:16.927Z,18.44
2022-08-18T02:51:18.535Z,18.38
2022-08-18T02:56:40.077Z,18.27
2022-08-18T03:01:46.703Z,18.17
2022-08-18T03:06:48.325Z,18.21
2022-08-18T03:11:51.960Z,18.02
2022-08-18T03:16:55.388Z,18.07
2022-08-18T03:21:58.652Z,18.04
2022-08-18T03:27:06.130Z,18.05
2022-08-18T03:32:07.959Z,17.96
2022-08-18T03:37:10.246Z,17.92
2022-08-18T03:42:11.705Z,17.95
2022-08-18T03:47:13.498Z,17.71
2022-08-18T03:52:15.426Z,17.68
2022-08-18T03:57:16.931Z,17.77
2022-08-18T04:02:18.454Z,17.82
2022-08-18T04:07:20.341Z,17.73
2022-08-18T04:12:21.918Z,17.67
2022-08-18T04:17:23.977Z,17.78
2022-08-18T04:22:25.838Z,17.82
2022-08-18T04:27:28.631Z,17.86
2022-08-18T04:32:30.795Z,17.75
2022-08-18T04:37:32.227Z,17.79
2022-08-18T04:42:34.685Z,17.77
2022-08-18T04:47:49.783Z,17.82
2022-08-18T04:52:51.224Z,17.82
2022-08-18T04:57:52.817Z,17.96
2022-08-18T05:02:56.824Z,18.04
2022-08-18T05:07:58.243Z,18.04
2022-08-18T05:12:59.753Z,18.17
2022-08-18T05:18:01.255Z,18.09
2022-08-18T05:23:03.495Z,17.94
2022-08-18T05:28:04.944Z,18.16
2022-08-18T05:33:06.818Z,17.97
2022-08-18T05:38:28.024Z,18.07
2022-08-18T05:43:29.438Z,18.26
2022-08-18T05:48:33.114Z,18.34
2022-08-18T05:53:34.575Z,18.41
2022-08-18T05:58:50.315Z,18.53
2022-08-18T06:04:00.684Z,18.67
2022-08-18T06:09:21.810Z,18.70
2022-08-18T06:14:24.160Z,18.72
2022-08-18T06:19:37.472Z,18.80
2022-08-18T06:24:52.777Z,19.00
2022-08-18T06:30:06.634Z,19.15
2022-08-18T06:35:16.513Z,18.96
2022-08-18T06:40:18.130Z,19.20
2022-08-18T06:45:35.753Z,19.34
2022-08-18T06:56:42.885Z,19.57
2022-08-18T07:07:42.085Z,19.49
2022-08-18T07:12:49.508Z,19.47
2022-08-18T07:17:51.650Z,19.46
2022-08-18T07:23:00.953Z,19.38
2022-08-18T07:46:27.905Z,19.54
2022-08-18T08:28:02.088Z,19.97
2022-08-18T08:33:28.673Z,20.00
2022-08-18T08:39:23.250Z,20.19
2022-08-18T09:00:37.187Z,20.47
2022-08-18T09:06:00.673Z,20.69
2022-08-18T09:22:54.979Z,21.96
2022-08-18T09:35:02.528Z,22.18
2022-08-18T09:40:26.046Z,22.16
2022-08-18T10:03:25.684Z,22.44
2022-08-18T10:14:54.528Z,23.26
2022-08-18T10:42:37.382Z,25.86
2022-08-18T10:47:39.229Z,25.10
2022-08-18T10:53:39.895Z,25.16
2022-08-18T10:59:02.685Z,24.66
2022-08-18T11:11:27.213Z,24.43
2022-08-18T11:16:20.733Z,24.71
2022-08-18T11:27:37.173Z,24.42
2022-08-18T11:32:51.548Z,24.67
2022-08-18T11:38:25.100Z,24.89
2022-08-18T11:43:41.311Z,25.23
2022-08-18T12:00:48.031Z,26.37
2022-08-18T12:11:27.892Z,26.03
2022-08-18T12:16:46.391Z,26.07
2022-08-18T12:22:00.799Z,25.90
2022-08-18T12:27:21.145Z,25.87
2022-08-18T12:32:41.762Z,25.91
2022-08-18T12:38:04.873Z,25.87
2022-08-18T12:43:08.590Z,26.01
2022-08-18T12:48:13.251Z,26.83
2022-08-18T12:53:58.554Z,27.11
2022-08-18T12:59:04.123Z,27.77
2022-08-18T13:09:53.698Z,28.59
2022-08-18T13:20:35.181Z,27.85
2022-08-18T13:42:34.404Z,28.37
2022-08-18T13:47:58.597Z,28.54
2022-08-18T13:58:17.468Z,28.39
2022-08-18T14:03:31.139Z,28.14
2022-08-18T14:08:44.758Z,27.25
2022-08-18T14:13:46.581Z,27.53
2022-08-18T14:19:24.286Z,27.84
2022-08-18T14:24:42.844Z,27.17
2022-08-18T14:29:50.521Z,27.45
2022-08-18T14:35:31.720Z,27.83
2022-08-18T14:40:22.308Z,27.97
2022-08-18T14:45:31.587Z,27.74
2022-08-18T14:50:56.080Z,28.11
2022-08-18T15:01:42.486Z,28.07
2022-08-18T15:06:56.442Z,28.17
2022-08-18T15:12:04.224Z,28.01
2022-08-18T15:17:13.338Z,27.89
2022-08-18T15:23:02.163Z,27.63
2022-08-18T15:28:05.610Z,27.63
2022-08-18T15:33:24.844Z,27.61
2022-08-18T15:38:29.761Z,27.13
2022-08-18T15:43:45.927Z,27.67
2022-08-18T15:48:54.743Z,27.57
2022-08-18T15:53:59.776Z,27.35
2022-08-18T15:59:09.770Z,27.52
2022-08-18T16:04:13.693Z,27.49
2022-08-18T16:09:17.359Z,27.09
2022-08-18T16:14:18.998Z,27.28
2022-08-18T16:19:20.985Z,27.25
2022-08-18T16:24:28.833Z,26.95
2022-08-18T16:29:31.089Z,26.64
2022-08-18T16:34:35.354Z,26.86
2022-08-18T16:39:37.913Z,26.85
2022-08-18T16:44:39.646Z,26.79
2022-08-18T16:49:41.749Z,26.63
2022-08-18T16:54:44.535Z,26.64
2022-08-18T16:59:46.814Z,26.49
2022-08-18T17:04:48.565Z,26.39
2022-08-18T17:09:50.628Z,26.26
2022-08-18T17:14:52.647Z,26.05
2022-08-18T17:20:11.231Z,25.86
2022-08-18T17:37:28.319Z,25.45
2022-08-18T18:17:51.180Z,24.49
2022-08-18T18:23:14.563Z,24.27
2022-08-18T18:28:32.002Z,24.24
2022-08-18T18:33:33.935Z,24.06
2022-08-18T18:38:38.945Z,24.02
2022-08-18T18:43:43.037Z,23.91
2022-08-18T18:48:52.198Z,23.91
2022-08-18T18:54:16.627Z,23.63
2022-08-18T18:59:42.704Z,23.53
2022-08-18T19:05:00.370Z,23.40
2022-08-18T19:10:19.129Z,23.25
2022-08-18T19:15:21.800Z,23.11
2022-08-18T19:20:32.220Z,22.92
2022-08-18T19:25:54.474Z,22.88
2022-08-18T19:31:02.091Z,22.69
2022-08-18T19:36:19.693Z,22.55
2022-08-18T19:41:42.891Z,22.59
2022-08-18T19:46:50.639Z,22.60
2022-08-18T19:52:01.465Z,22.58
2022-08-18T19:57:22.776Z,22.55
2022-08-18T20:02:36.211Z,22.54
2022-08-18T20:07:55.665Z,22.56
2022-08-18T20:13:23.740Z,22.52
2022-08-18T20:18:47.509Z,22.48
2022-08-18T20:24:36.168Z,22.56
2022-08-18T20:29:37.577Z,22.41
2022-08-18T20:34:46.542Z,22.31
2022-08-18T20:39:51.587Z,22.42
2022-08-18T20:44:57.818Z,22.43
2022-08-18T20:50:30.416Z,22.34
2022-08-18T20:55:53.353Z,22.06
2022-08-18T21:00:56.802Z,21.92
2022-08-18T21:05:59.255Z,22.00
2022-08-18T21:11:03.602Z,21.79
2022-08-18T21:16:05.440Z,21.82
2022-08-18T21:21:27.167Z,21.71
2022-08-18T21:26:31.219Z,21.77
2022-08-18T21:31:43.547Z,21.69
2022-08-18T21:36:52.520Z,21.61
2022-08-18T21:41:56.265Z,21.37
2022-08-18T21:47:15.458Z,21.27
2022-08-18T21:52:23.324Z,21.24
2022-08-18T21:57:27.890Z,21.13
2022-08-18T22:02:29.429Z,21.10
2022-08-18T22:07:35.346Z,21.02
2022-08-18T22:12:37.097Z,20.91
2022-08-18T22:18:02.997Z,20.84
2022-08-18T22:23:13.313Z,20.75
2022-08-18T22:28:21.480Z,20.67
2022-08-18T22:33:22.967Z,20.66
2022-08-18T22:38:29.067Z,20.60
2022-08-18T22:43:30.525Z,20.43
2022-08-18T22:48:32.123Z,20.40
2022-08-18T22:53:34.885Z,20.32
2022-08-18T22:58:36.430Z,20.33
2022-08-18T23:03:42.237Z,20.18
2022-08-18T23:08:55.014Z,20.19
2022-08-18T23:14:00.638Z,20.11
2022-08-18T23:19:02.685Z,20.04
2022-08-18T23:24:05.560Z,19.95
2022-08-18T23:29:08.285Z,19.91
2022-08-18T23:34:11.230Z,19.96
2022-08-18T23:39:13.839Z,19.88
2022-08-18T23:44:15.329Z,19.84
2022-08-18T23:49:16.823Z,19.80
2022-08-18T23:54:21.386Z,19.66
2022-08-18T23:59:24.307Z,19.64
